PACD Airport Information

Runway Information
Runway 08 Length 4235 ft width 150 ft
Elevation 93 ft Threshold 0 ft Heading 95
Runway 26 Length 4235 ft Width 150 ft
Elevation 96 ft Threshold 0 ft Heading 275
Runway 14 Length 10415 ft width 150 ft
Elevation 69 ft Threshold 0 ft Heading 158
Runway 32 Length 10415 ft Width 150 ft
Elevation 89 ft Threshold 0 ft Heading 338
Airport Frequencies
Type ASOS Name ASOS Frequency 135.75 MHZ
Type CNTR Name ANCHORAGE Frequency 118.5 MHZ
Type CTAF Name CTAF Frequency 123.6 MHZ
Type FSS Name RDO Frequency 123.6 MHZ
Type RFSS Name KENAI RDO Frequency 123.6 MHZ
Airport Navaids
Type NDB Name Elfee Frequency 341 KHZ
Type VORTAC Name Cold Bay Frequency 112600 KHZ
Airport Weather Information & NOTAM
ADDS - METARS form results

(1322 UTC 24 January 2019)
Data provider http://aviationweather.gov/metar/data/
 
METAR text: PACD 241313Z AUTO 15019KT 8SM -RA FEW007 BKN017 BKN024 02/02 A2911 RMK AO2 RAB05 P0000 I1000 T00220017 TSNO
Conditions at: PACD (COLD BAY , AK, US) observed 1313 UTC 24 January 2019
Temperature: 2.2°C (36°F)
Dewpoint: 1.7°C (35°F) [RH = 96%]
Pressure (altimeter): 29.11 inches Hg (985.9 mb)
Winds: from the SSE (150 degrees) at 22 MPH (19 knots; 9.8 m/s)
Visibility: 8 miles (13 km)
Ceiling: 1700 feet AGL
Clouds: few clouds at 700 feet AGL
broken clouds at 1700 feet AGL
broken clouds at 2400 feet AGL
Weather: -RA  (light rain)

METAR text: PACD 241253Z AUTO 15015KT 10SM FEW012 SCT021 02/01 A2910 RMK AO2 SLP854 T00170006 TSNO
Conditions at: PACD (COLD BAY , AK, US) observed 1253 UTC 24 January 2019
Temperature: 1.7°C (35°F)
Dewpoint: 0.6°C (33°F) [RH = 92%]
Pressure (altimeter): 29.10 inches Hg (985.5 mb)
[Sea-level pressure:  985.4 mb]
Winds: from the SSE (150 degrees) at 17 MPH (15 knots; 7.7 m/s)
Visibility: 10 or more miles (16+ km)
Ceiling: at least 12,000 feet AGL
Clouds: few clouds at 1200 feet AGL
scattered clouds at 2100 feet AGL
Weather: automated observation with no human augmentation;
there may or may not be significant weather present at this time

METAR text: PACD 241239Z AUTO 16015G19KT 10SM SCT014 02/01 A2909 RMK AO2 T00170006 TSNO
Conditions at: PACD (COLD BAY , AK, US) observed 1239 UTC 24 January 2019
Temperature: 1.7°C (35°F)
Dewpoint: 0.6°C (33°F) [RH = 92%]
Pressure (altimeter): 29.09 inches Hg (985.2 mb)
Winds: from the SSE (160 degrees) at 17 MPH (15 knots; 7.7 m/s)
gusting to 22 MPH (19 knots; 9.8 m/s)
Visibility: 10 or more miles (16+ km)
Ceiling: at least 12,000 feet AGL
Clouds: scattered clouds at 1400 feet AGL
Weather: automated observation with no human augmentation;
there may or may not be significant weather present at this time

Forecast for: PACD (COLD BAY , AK, US)
Text: PACD 241141Z 2412/2512 13018G23KT P6SM VCSH SCT025 BKN035
Forecast period: 1200 to 2000 UTC 24 January 2019
Forecast type: FROM: standard forecast or significant change
Winds: from the SE (130 degrees) at 21 MPH (18 knots; 9.3 m/s)
gusting to 26 MPH (23 knots; 11.8 m/s)
Visibility: 6 or more miles 10+ km)
Ceiling: 3500 feet AGL
Clouds: scattered clouds at 2500 feet AGL
broken clouds at 3500 feet AGL
Weather: VCSH  (showers in vicinity)
Text: FM242000 12009KT 4SM -RA BR BKN025
Forecast period: 2000 UTC 24 January 2019 to 0300 UTC 25 January 2019
Forecast type: FROM: standard forecast or significant change
Winds: from the ESE (120 degrees) at 10 MPH (9 knots; 4.6 m/s)
Visibility: 4 miles (6 km)
Ceiling: 2500 feet AGL
Clouds: broken clouds at 2500 feet AGL
Weather: -RA BR  (light rain, mist)
Text: FM250300 20015G25KT P6SM SCT025 BKN035
Forecast period: 0300 to 1200 UTC 25 January 2019
Forecast type: FROM: standard forecast or significant change
Winds: from the SSW (200 degrees) at 17 MPH (15 knots; 7.7 m/s)
gusting to 29 MPH (25 knots; 12.9 m/s)
Visibility: 6 or more miles 10+ km)
Ceiling: 3500 feet AGL
Clouds: scattered clouds at 2500 feet AGL
broken clouds at 3500 feet AGL
Weather: no significant weather forecast for this period